Time;durP1;ratioP1;P1;durP2;ratioP2;P2;SDS_P1;SDS_P2;PMS_P1;PMS_P2;Temp;Humidity;BMP_temperature;BMP_pressure;BME280_temperature;BME280_humidity;BME280_pressure;Samples;Min_cycle;Max_cycle;Signal;HPM_P1;HPM_P2
2023/09/03 00:00:31;;;;;;;11.10;7.68;;;18.90;99.90;;;;;;5031642;28;20033;-36
2023/09/03 00:02:57;;;;;;;9.07;7.65;;;19.50;99.90;;;;;;5029135;28;20037;-38
2023/09/03 00:05:22;;;;;;;12.20;7.97;;;19.30;99.90;;;;;;5030706;28;20049;-39
2023/09/03 00:07:50;;;;;;;10.10;7.50;;;18.30;99.90;;;;;;5022531;28;20053;-39
2023/09/03 00:10:15;;;;;;;9.88;7.72;;;18.90;99.90;;;;;;5023379;28;20545;-38
2023/09/03 00:12:41;;;;;;;11.05;8.55;;;20.10;99.90;;;;;;5025490;28;20049;-39
2023/09/03 00:15:07;;;;;;;10.50;8.43;;;19.10;99.90;;;;;;5031018;28;20044;-38
2023/09/03 00:17:33;;;;;;;10.35;7.75;;;19.10;99.90;;;;;;5031376;28;20256;-38
2023/09/03 00:19:58;;;;;;;11.25;7.75;;;18.90;99.90;;;;;;5030593;28;20116;-38
2023/09/03 00:22:24;;;;;;;10.90;8.57;;;18.50;99.90;;;;;;5029446;28;20083;-36
2023/09/03 00:24:50;;;;;;;11.82;8.70;;;18.90;99.90;;;;;;5030738;28;20041;-38
2023/09/03 00:27:15;;;;;;;11.43;8.30;;;18.70;99.90;;;;;;5022116;28;20052;-36
2023/09/03 00:29:41;;;;;;;10.70;8.93;;;18.50;99.90;;;;;;5028762;28;20060;-38
2023/09/03 00:32:07;;;;;;;12.13;8.90;;;18.80;99.90;;;;;;5029375;28;20565;-37
2023/09/03 00:34:32;;;;;;;12.68;9.30;;;18.20;99.90;;;;;;5029134;28;20037;-39
2023/09/03 00:36:59;;;;;;;11.00;8.73;;;18.90;99.90;;;;;;5029138;28;20081;-39
2023/09/03 00:39:24;;;;;;;12.43;9.30;;;18.90;99.90;;;;;;5029959;28;20060;-39
2023/09/03 00:41:50;;;;;;;11.07;9.35;;;18.80;99.90;;;;;;5029659;28;20499;-38
2023/09/03 00:44:16;;;;;;;11.65;9.63;;;18.70;99.90;;;;;;5027005;28;20041;-37
2023/09/03 00:46:42;;;;;;;11.07;9.35;;;18.40;99.90;;;;;;5028051;28;20127;-39
2023/09/03 00:49:10;;;;;;;10.93;9.15;;;18.90;99.90;;;;;;5028727;28;20387;-37
2023/09/03 00:51:36;;;;;;;14.75;9.68;;;18.70;99.90;;;;;;5030050;28;20045;-38
2023/09/03 00:54:03;;;;;;;12.07;9.93;;;18.60;99.90;;;;;;5028027;28;20112;-37
2023/09/03 00:56:30;;;;;;;12.27;9.95;;;18.90;99.90;;;;;;5028299;28;20041;-37
2023/09/03 00:58:56;;;;;;;12.82;10.23;;;19.00;99.90;;;;;;5028314;28;20048;-38
2023/09/03 01:01:22;;;;;;;13.27;10.05;;;19.10;99.90;;;;;;5029373;28;20408;-39
2023/09/03 01:03:48;;;;;;;14.68;10.23;;;18.60;99.90;;;;;;5028836;28;20037;-39
2023/09/03 01:06:14;;;;;;;11.63;10.00;;;18.10;99.90;;;;;;5021057;28;20143;-39
2023/09/03 01:08:40;;;;;;;11.68;9.85;;;19.00;99.90;;;;;;5028273;28;20430;-42
2023/09/03 01:11:21;;;;;;;13.63;11.20;;;17.90;99.90;;;;;;5029071;28;20064;-40
2023/09/03 01:14:04;;;;;;;11.27;9.38;;;17.90;99.90;;;;;;5028705;28;20048;-39
2023/09/03 01:16:44;;;;;;;12.57;9.63;;;18.90;99.90;;;;;;5022764;28;20038;-39
2023/09/03 01:19:48;;;;;;;12.10;9.68;;;18.70;99.90;;;;;;5029176;28;20167;-37
2023/09/03 01:22:31;;;;;;;12.27;9.50;;;18.70;99.90;;;;;;5027527;28;20041;-35
2023/09/03 01:25:12;;;;;;;11.82;9.38;;;18.10;99.90;;;;;;4990135;28;1120813;-39
2023/09/03 01:27:51;;;;;;;11.02;9.52;;;18.10;99.90;;;;;;5030008;28;20051;-37
2023/09/03 01:30:18;;;;;;;10.95;9.25;;;18.90;99.90;;;;;;5027920;28;20048;-36
2023/09/03 01:32:46;;;;;;;13.05;9.65;;;18.80;99.90;;;;;;5028456;28;20049;-39
2023/09/03 01:35:12;;;;;;;13.90;9.52;;;18.60;99.90;;;;;;5027471;28;20041;-39
2023/09/03 01:37:38;;;;;;;11.18;8.95;;;18.60;99.90;;;;;;5028031;28;20553;-39
2023/09/03 01:40:04;;;;;;;12.10;9.38;;;18.80;99.90;;;;;;5028462;28;20419;-36
2023/09/03 01:42:30;;;;;;;15.18;9.85;;;19.00;99.90;;;;;;5022481;28;20075;-37
2023/09/03 01:44:56;;;;;;;10.63;8.90;;;18.70;99.90;;;;;;5029763;28;20037;-38
2023/09/03 01:48:00;;;;;;;13.30;9.23;;;18.80;99.90;;;;;;5029533;28;20119;-35
2023/09/03 01:50:39;;;;;;;11.27;9.35;;;18.00;99.90;;;;;;4999064;28;20053;-38
2023/09/03 01:53:12;;;;;;;10.98;8.93;;;19.00;99.90;;;;;;5027625;28;20415;-39
2023/09/03 01:55:42;;;;;;;10.60;8.23;;;18.70;99.90;;;;;;5029522;28;20040;-37
2023/09/03 01:58:10;;;;;;;12.07;9.43;;;18.50;99.90;;;;;;5029158;28;20395;-36
2023/09/03 02:00:37;;;;;;;9.82;8.77;;;19.00;99.90;;;;;;5028660;28;20033;-38
2023/09/03 02:03:04;;;;;;;12.23;9.95;;;18.60;99.90;;;;;;5029596;28;20041;-37
2023/09/03 02:05:30;;;;;;;13.00;9.30;;;18.30;99.90;;;;;;5028990;28;20034;-38
2023/09/03 02:07:56;;;;;;;11.82;9.00;;;18.60;99.90;;;;;;5029604;28;20041;-38
2023/09/03 02:10:21;;;;;;;9.95;8.30;;;18.50;99.90;;;;;;5029209;28;20492;-40
2023/09/03 02:12:47;;;;;;;11.20;9.10;;;18.70;99.90;;;;;;5029167;28;20416;-36
2023/09/03 02:15:13;;;;;;;9.80;7.80;;;17.80;99.90;;;;;;5027906;28;20036;-36
2023/09/03 02:17:38;;;;;;;12.48;8.57;;;18.20;99.90;;;;;;5033259;28;20029;-39
2023/09/03 02:20:05;;;;;;;11.13;8.55;;;18.00;99.90;;;;;;5032828;28;20506;-38
2023/09/03 02:22:30;;;;;;;10.70;8.63;;;18.90;99.90;;;;;;5033351;28;20033;-37
2023/09/03 02:24:56;;;;;;;12.20;8.55;;;18.50;99.90;;;;;;5031153;28;20518;-38
2023/09/03 02:27:21;;;;;;;10.60;8.48;;;18.50;99.90;;;;;;5032040;28;20052;-38
2023/09/03 02:29:47;;;;;;;11.23;8.50;;;18.50;99.90;;;;;;5033157;28;20044;-36
2023/09/03 02:32:13;;;;;;;10.93;8.25;;;18.60;99.90;;;;;;5024579;28;20048;-39
2023/09/03 02:34:38;;;;;;;11.02;8.55;;;18.80;99.90;;;;;;5032634;28;20163;-39
2023/09/03 02:37:04;;;;;;;11.18;8.27;;;17.80;99.90;;;;;;5032894;28;20033;-37
2023/09/03 02:39:30;;;;;;;12.10;8.23;;;18.70;99.90;;;;;;5033187;28;20084;-38
2023/09/03 02:41:57;;;;;;;12.20;8.57;;;18.70;99.90;;;;;;5033163;28;20111;-38
2023/09/03 02:44:23;;;;;;;11.00;9.15;;;18.40;99.90;;;;;;5032389;28;20072;-35
2023/09/03 02:46:49;;;;;;;12.52;8.60;;;18.80;99.90;;;;;;5031472;28;20554;-38
2023/09/03 02:49:14;;;;;;;13.02;8.40;;;18.10;99.90;;;;;;5030220;28;20045;-35
2023/09/03 02:51:40;;;;;;;11.23;8.23;;;18.20;99.90;;;;;;5032624;28;20577;-38
2023/09/03 02:54:06;;;;;;;10.55;8.57;;;17.80;99.90;;;;;;5023746;28;20121;-38
2023/09/03 02:56:33;;;;;;;10.25;8.30;;;17.50;99.90;;;;;;5032609;28;20041;-39
2023/09/03 02:58:59;;;;;;;11.32;8.85;;;18.80;99.90;;;;;;5032526;28;20491;-37
2023/09/03 03:01:25;;;;;;;11.63;8.73;;;17.80;99.90;;;;;;5032802;28;20044;-37
2023/09/03 03:03:51;;;;;;;11.23;8.82;;;18.00;99.90;;;;;;5030935;28;20052;-38
2023/09/03 03:06:16;;;;;;;10.30;8.50;;;18.00;99.90;;;;;;5014549;28;20045;-40
2023/09/03 03:08:42;;;;;;;9.82;7.95;;;18.50;99.90;;;;;;5032672;28;20529;-37
2023/09/03 03:11:12;;;;;;;11.15;8.43;;;18.30;99.90;;;;;;5032300;28;20484;-38
2023/09/03 03:13:39;;;;;;;12.52;8.85;;;17.60;99.90;;;;;;5032454;28;20408;-36
2023/09/03 03:16:10;;;;;;;10.70;8.32;;;17.90;99.90;;;;;;5032013;28;20108;-38
2023/09/03 03:18:38;;;;;;;10.80;8.52;;;18.60;99.90;;;;;;5032523;28;20069;-37
2023/09/03 03:21:08;;;;;;;11.77;8.70;;;17.50;99.90;;;;;;5032301;28;20025;-40
2023/09/03 03:23:35;;;;;;;10.88;8.20;;;18.10;99.90;;;;;;5023843;28;20505;-38
2023/09/03 03:26:01;;;;;;;14.55;8.00;;;18.00;99.90;;;;;;5031383;28;20040;-36
2023/09/03 03:28:29;;;;;;;9.65;7.13;;;17.80;99.90;;;;;;5031581;28;20041;-39
2023/09/03 03:30:56;;;;;;;8.88;5.85;;;17.70;99.90;;;;;;5032470;28;20049;-35
2023/09/03 03:33:21;;;;;;;8.68;5.30;;;18.60;99.90;;;;;;5025531;28;20407;-37
2023/09/03 03:35:47;;;;;;;9.48;5.18;;;18.00;99.90;;;;;;5030424;28;20041;-39
2023/09/03 03:38:13;;;;;;;7.43;5.15;;;18.00;99.90;;;;;;5030508;28;20479;-38
2023/09/03 03:40:38;;;;;;;7.55;5.28;;;17.30;99.90;;;;;;5031834;28;20428;-36
2023/09/03 03:43:04;;;;;;;8.23;5.45;;;17.60;99.90;;;;;;5031848;28;20124;-35
2023/09/03 03:45:33;;;;;;;7.43;5.50;;;17.60;99.90;;;;;;5031259;28;20629;-36
2023/09/03 03:47:58;;;;;;;8.73;6.32;;;17.90;99.90;;;;;;5030661;28;20570;-37
2023/09/03 03:50:24;;;;;;;9.43;5.90;;;18.30;99.90;;;;;;5030254;28;20082;-38
2023/09/03 03:52:49;;;;;;;9.60;5.88;;;17.50;99.90;;;;;;5031379;28;20072;-39
2023/09/03 03:55:15;;;;;;;9.20;6.45;;;18.30;99.90;;;;;;5029875;28;20132;-39
2023/09/03 03:57:41;;;;;;;8.93;6.28;;;18.30;99.90;;;;;;5030562;28;20053;-35
2023/09/03 04:00:08;;;;;;;9.68;6.47;;;17.10;99.90;;;;;;5031607;28;20049;-37
2023/09/03 04:02:33;;;;;;;10.02;6.60;;;17.40;99.90;;;;;;5031234;28;20124;-39
2023/09/03 04:04:59;;;;;;;8.98;5.57;;;18.40;99.90;;;;;;5031634;28;20112;-37
2023/09/03 04:07:25;;;;;;;7.70;5.05;;;17.30;99.90;;;;;;5029203;28;20356;-35
2023/09/03 04:09:50;;;;;;;6.88;4.65;;;17.70;99.90;;;;;;5031632;28;20392;-37
2023/09/03 04:12:16;;;;;;;8.20;4.80;;;17.60;99.90;;;;;;5030697;28;20046;-39
2023/09/03 04:14:41;;;;;;;6.70;4.35;;;18.40;99.90;;;;;;5030168;28;20037;-38
2023/09/03 04:17:07;;;;;;;7.30;4.75;;;17.50;99.90;;;;;;5031401;28;20124;-37
2023/09/03 04:19:33;;;;;;;8.32;4.10;;;17.60;99.90;;;;;;5022628;28;20417;-38
2023/09/03 04:21:59;;;;;;;6.05;3.70;;;17.70;99.90;;;;;;5029722;28;20044;-40
2023/09/03 04:24:25;;;;;;;6.18;4.60;;;17.50;99.90;;;;;;5031232;28;20037;-38
2023/09/03 04:26:51;;;;;;;7.90;5.22;;;17.90;99.90;;;;;;5031077;28;20040;-39
2023/09/03 04:29:16;;;;;;;8.18;6.25;;;17.50;99.90;;;;;;5030980;28;20041;-36
2023/09/03 04:31:42;;;;;;;9.80;6.93;;;17.10;99.90;;;;;;5027263;28;20050;-37
2023/09/03 04:34:08;;;;;;;8.63;6.20;;;17.60;99.90;;;;;;5026400;28;20037;-37
2023/09/03 04:36:34;;;;;;;9.25;5.63;;;18.00;99.90;;;;;;5029413;28;20393;-36
2023/09/03 04:39:00;;;;;;;8.60;4.93;;;18.20;99.90;;;;;;5030883;28;20053;-36
2023/09/03 04:41:25;;;;;;;6.10;3.90;;;17.20;99.90;;;;;;5030389;28;20044;-38
2023/09/03 04:44:06;;;;;;;6.53;3.92;;;17.40;99.90;;;;;;5029515;28;20399;-38
2023/09/03 04:46:31;;;;;;;7.93;4.63;;;17.80;99.90;;;;;;5030414;28;20055;-38
2023/09/03 04:48:57;;;;;;;7.18;5.05;;;17.10;99.90;;;;;;5029280;28;20030;-38
2023/09/03 04:51:22;;;;;;;7.20;4.60;;;18.40;99.90;;;;;;5025774;28;20045;-38
2023/09/03 04:53:48;;;;;;;6.90;4.30;;;17.80;99.90;;;;;;5027780;28;20068;-39
2023/09/03 04:56:14;;;;;;;5.95;3.85;;;17.70;99.90;;;;;;5028587;28;20041;-36
2023/09/03 04:58:40;;;;;;;6.20;3.60;;;17.30;99.90;;;;;;5029123;28;20057;-36
2023/09/03 05:01:18;;;;;;;7.30;3.92;;;17.60;99.90;;;;;;5030610;28;20041;-35
2023/09/03 05:03:44;;;;;;;6.28;3.90;;;17.80;99.90;;;;;;5026318;28;20041;-37
2023/09/03 05:06:16;;;;;;;5.60;3.38;;;17.60;99.90;;;;;;5030958;28;20029;-38
2023/09/03 05:08:43;;;;;;;6.28;3.92;;;17.40;99.90;;;;;;5029808;28;20438;-38
2023/09/03 05:11:11;;;;;;;6.20;3.95;;;17.50;99.90;;;;;;5030721;28;20072;-36
2023/09/03 05:13:37;;;;;;;6.10;3.83;;;16.90;99.90;;;;;;5028246;28;20049;-37
2023/09/03 05:16:04;;;;;;;7.60;4.45;;;17.50;99.90;;;;;;5029776;28;20121;-38
2023/09/03 05:18:30;;;;;;;7.88;5.13;;;17.60;99.90;;;;;;5028448;28;20096;-38
2023/09/03 05:20:56;;;;;;;8.90;5.10;;;17.80;99.90;;;;;;5028820;28;20420;-40
2023/09/03 05:23:22;;;;;;;7.25;4.50;;;18.10;1.00;;;;;;5028050;28;20073;-40
2023/09/03 05:25:48;;;;;;;7.35;4.55;;;;;;;;;;5029927;28;20501;-35
2023/09/03 05:28:14;;;;;;;7.50;5.32;;;17.80;99.90;;;;;;5029857;28;20048;-36
2023/09/03 05:30:39;;;;;;;7.70;4.82;;;17.60;1.00;;;;;;5028321;28;20407;-36
2023/09/03 05:33:05;;;;;;;7.22;4.38;;;17.40;1.00;;;;;;5029678;28;20034;-36
2023/09/03 05:35:30;;;;;;;7.10;4.75;;;17.50;1.00;;;;;;5027798;28;20043;-39
2023/09/03 05:37:56;;;;;;;6.00;4.22;;;17.20;1.00;;;;;;5021854;28;20439;-37
2023/09/03 05:40:22;;;;;;;6.95;4.50;;;18.30;1.00;;;;;;5029195;28;20041;-39
2023/09/03 05:42:48;;;;;;;6.70;4.32;;;17.30;1.00;;;;;;5029789;28;20049;-36
2023/09/03 05:45:14;;;;;;;7.65;4.18;;;17.30;1.00;;;;;;5017894;28;20050;-36
2023/09/03 05:47:39;;;;;;;6.57;4.00;;;18.00;1.00;;;;;;5029635;28;20120;-37
2023/09/03 05:50:06;;;;;;;6.32;4.35;;;18.00;1.00;;;;;;5027879;28;20077;-38
2023/09/03 05:52:31;;;;;;;6.75;4.00;;;17.20;1.00;;;;;;5029310;28;20099;-37
2023/09/03 05:54:57;;;;;;;7.72;3.75;;;17.70;1.00;;;;;;5029817;28;20045;-36
2023/09/03 05:57:23;;;;;;;6.30;3.60;;;17.80;1.00;;;;;;5029036;28;20053;-40
2023/09/03 05:59:52;;;;;;;6.93;3.83;;;17.00;1.00;;;;;;5029636;28;20030;-37
2023/09/03 06:02:18;;;;;;;6.28;3.03;;;17.30;1.00;;;;;;5029422;28;20030;-37
2023/09/03 06:04:44;;;;;;;5.97;3.45;;;18.30;1.00;;;;;;5029594;28;20056;-35
2023/09/03 06:07:09;;;;;;;5.10;2.90;;;17.60;1.00;;;;;;5029573;28;20052;-35
2023/09/03 06:09:38;;;;;;;6.47;2.80;;;17.20;1.00;;;;;;5027832;28;20041;-38
2023/09/03 06:12:04;;;;;;;5.10;3.08;;;17.40;1.00;;;;;;5029323;28;20461;-38
2023/09/03 06:14:30;;;;;;;6.05;3.10;;;17.90;1.00;;;;;;5023004;28;20093;-39
2023/09/03 06:16:56;;;;;;;6.15;3.00;;;17.60;1.00;;;;;;5024512;28;20033;-38
2023/09/03 06:19:23;;;;;;;5.05;2.95;;;18.10;1.00;;;;;;5029560;28;20529;-37
2023/09/03 06:21:48;;;;;;;5.60;3.10;;;17.80;1.00;;;;;;5030928;28;20395;-37
2023/09/03 06:24:15;;;;;;;5.78;3.30;;;17.30;1.00;;;;;;5030362;28;20042;-36
2023/09/03 06:26:41;;;;;;;7.50;4.80;;;17.50;1.00;;;;;;5028935;28;20042;-37
2023/09/03 06:29:07;;;;;;;6.63;4.15;;;17.40;1.00;;;;;;5029534;28;20041;-37
2023/09/03 06:31:33;;;;;;;7.65;5.03;;;17.10;1.00;;;;;;5027987;28;20033;-39
2023/09/03 06:33:59;;;;;;;8.77;5.60;;;17.40;1.00;;;;;;5020216;28;20049;-39
2023/09/03 06:36:27;;;;;;;8.88;4.88;;;17.50;1.00;;;;;;5029641;28;20510;-38
2023/09/03 06:38:53;;;;;;;7.45;4.57;;;16.90;1.00;;;;;;5027982;28;20037;-36
2023/09/03 06:41:19;;;;;;;7.82;4.85;;;17.20;6.80;;;;;;5029539;28;20037;-39
2023/09/03 06:43:44;;;;;;;8.10;4.90;;;17.20;23.30;;;;;;5027249;28;20025;-39
2023/09/03 06:46:10;;;;;;;9.00;4.88;;;17.50;40.70;;;;;;5028333;28;20474;-38
2023/09/03 06:48:36;;;;;;;8.43;4.63;;;18.40;58.60;;;;;;5028331;28;20044;-38
2023/09/03 06:51:02;;;;;;;8.90;4.70;;;17.40;69.20;;;;;;5029495;28;20475;-39
2023/09/03 06:53:28;;;;;;;11.15;6.38;;;18.40;89.00;;;;;;5028408;28;20504;-43
2023/09/03 06:55:54;;;;;;;10.88;6.63;;;18.60;92.30;;;;;;5029106;28;20037;-39
2023/09/03 06:58:19;;;;;;;10.70;5.35;;;18.40;99.70;;;;;;5028978;28;20041;-40
2023/09/03 07:00:46;;;;;;;10.77;5.22;;;18.10;99.90;;;;;;5027043;28;20430;-38
2023/09/03 07:03:12;;;;;;;10.57;5.18;;;17.60;99.90;;;;;;5028487;28;20033;-39
2023/09/03 07:05:38;;;;;;;9.45;4.80;;;18.50;99.90;;;;;;5030609;28;20082;-41
2023/09/03 07:08:04;;;;;;;9.50;4.55;;;17.40;99.90;;;;;;5028144;28;20042;-39
2023/09/03 07:10:29;;;;;;;8.20;4.90;;;17.60;99.90;;;;;;5031126;28;20041;-38
2023/09/03 07:12:55;;;;;;;8.23;4.18;;;18.80;99.90;;;;;;5032256;28;20044;-37
2023/09/03 07:15:21;;;;;;;8.10;4.18;;;18.50;99.90;;;;;;5032122;28;20045;-38
2023/09/03 07:17:46;;;;;;;9.27;4.35;;;18.50;99.90;;;;;;5023076;28;20048;-40
2023/09/03 07:20:12;;;;;;;8.90;4.45;;;18.60;99.90;;;;;;5020129;28;20417;-39
2023/09/03 07:22:37;;;;;;;10.10;4.30;;;18.70;99.90;;;;;;5020884;28;20073;-39
2023/09/03 07:25:03;;;;;;;12.23;5.28;;;18.50;99.90;;;;;;5032284;28;20056;-40
2023/09/03 07:27:30;;;;;;;8.60;4.60;;;18.60;99.90;;;;;;5024851;28;20046;-39
2023/09/03 07:29:56;;;;;;;18.05;6.57;;;18.60;99.90;;;;;;5031089;28;20037;-38
2023/09/03 07:32:22;;;;;;;15.35;7.32;;;18.70;99.90;;;;;;5030857;28;20045;-39
2023/09/03 07:34:52;;;;;;;11.70;5.10;;;18.80;99.90;;;;;;5032002;28;20446;-40
2023/09/03 07:37:18;;;;;;;12.65;5.38;;;18.70;99.90;;;;;;5030680;28;20049;-39
2023/09/03 07:39:44;;;;;;;8.48;5.07;;;18.40;99.90;;;;;;5032037;28;20087;-42
2023/09/03 07:42:09;;;;;;;11.43;4.82;;;18.30;99.90;;;;;;5014182;28;20070;-37
2023/09/03 07:44:35;;;;;;;9.55;4.45;;;18.70;99.90;;;;;;5031807;28;20491;-37
2023/09/03 07:47:01;;;;;;;8.13;4.38;;;18.70;99.90;;;;;;5029152;28;20049;-40
2023/09/03 07:49:28;;;;;;;9.18;4.93;;;18.80;99.90;;;;;;5031366;28;20139;-40
2023/09/03 07:51:54;;;;;;;9.70;4.18;;;18.20;99.90;;;;;;5026208;28;20045;-39
2023/09/03 07:54:20;;;;;;;8.32;3.38;;;19.00;99.90;;;;;;5027754;28;20037;-39
2023/09/03 07:56:45;;;;;;;8.00;3.47;;;19.00;99.90;;;;;;5023322;28;20131;-39
2023/09/03 07:59:11;;;;;;;9.38;4.07;;;18.30;99.90;;;;;;5027820;28;20236;-41
2023/09/03 08:01:37;;;;;;;7.00;4.40;;;18.80;99.90;;;;;;5021630;28;20041;-38
2023/09/03 08:04:03;;;;;;;8.80;4.03;;;19.00;99.90;;;;;;5022949;28;20140;-38
2023/09/03 08:06:29;;;;;;;7.78;3.75;;;18.50;99.90;;;;;;5019924;28;20040;-39
2023/09/03 08:08:55;;;;;;;8.63;2.80;;;18.90;99.90;;;;;;5024400;28;20037;-40
2023/09/03 08:11:21;;;;;;;8.02;3.72;;;18.20;99.90;;;;;;5021484;28;20036;-39
2023/09/03 08:13:51;;;;;;;6.28;3.92;;;18.80;99.90;;;;;;5018849;28;20038;-39
2023/09/03 08:16:17;;;;;;;6.35;3.40;;;18.90;99.90;;;;;;5026738;28;20543;-38
2023/09/03 08:18:42;;;;;;;6.45;4.00;;;18.90;99.90;;;;;;5022000;28;20129;-37
2023/09/03 08:21:08;;;;;;;7.32;3.50;;;19.10;99.20;;;;;;5026767;28;20121;-36
2023/09/03 08:23:34;;;;;;;6.50;2.60;;;19.20;99.90;;;;;;5028642;28;20069;-39
2023/09/03 08:25:59;;;;;;;9.27;4.38;;;19.30;99.90;;;;;;5025412;28;20406;-39
2023/09/03 08:28:25;;;;;;;5.90;3.15;;;19.20;98.80;;;;;;5027377;28;20051;-38
2023/09/03 08:30:51;;;;;;;6.32;2.20;;;19.00;99.90;;;;;;5021547;28;20038;-40
2023/09/03 08:33:16;;;;;;;6.18;2.10;;;19.20;99.90;;;;;;5031078;28;20033;-38
2023/09/03 08:35:44;;;;;;;5.55;2.10;;;18.90;99.90;;;;;;5024782;28;20467;-39
2023/09/03 08:38:09;;;;;;;6.22;2.10;;;19.10;99.90;;;;;;5023251;28;20503;-39
2023/09/03 08:40:36;;;;;;;5.75;2.65;;;19.50;99.90;;;;;;5025262;28;20045;-41
2023/09/03 08:43:07;;;;;;;5.40;2.30;;;19.00;99.90;;;;;;5029372;28;20037;-40
2023/09/03 08:45:37;;;;;;;7.90;3.90;;;19.50;99.90;;;;;;5021011;28;20140;-38
2023/09/03 08:48:02;;;;;;;5.30;2.50;;;19.00;1.00;;;;;;5019927;28;20524;-40
2023/09/03 08:50:29;;;;;;;6.07;2.50;;;19.00;1.00;;;;;;5024325;28;20037;-40
2023/09/03 08:52:55;;;;;;;5.93;2.20;;;19.20;1.00;;;;;;5004511;28;20064;-39
2023/09/03 08:55:21;;;;;;;5.20;2.13;;;19.00;1.00;;;;;;5013171;28;20407;-39
2023/09/03 08:57:47;;;;;;;5.93;3.03;;;19.90;1.00;;;;;;5029532;28;20381;-39
2023/09/03 09:00:14;;;;;;;6.57;2.80;;;19.00;1.00;;;;;;5025486;28;20128;-39
2023/09/03 09:02:42;;;;;;;5.95;2.67;;;19.00;1.00;;;;;;5012412;28;20037;-41
2023/09/03 09:05:09;;;;;;;6.70;3.28;;;19.20;1.00;;;;;;5030512;28;20033;-40
2023/09/03 09:07:35;;;;;;;7.40;2.97;;;19.20;1.00;;;;;;5030728;28;20038;-40
2023/09/03 09:10:13;;;;;;;7.20;2.78;;;18.90;1.00;;;;;;5030340;28;20040;-40
2023/09/03 09:13:17;;;;;;;5.68;2.67;;;19.20;1.00;;;;;;5029253;28;20563;-39
2023/09/03 09:15:44;;;;;;;6.95;2.50;;;18.80;1.00;;;;;;4990058;28;20510;-40
2023/09/03 09:18:10;;;;;;;7.78;2.88;;;19.30;1.00;;;;;;5029112;28;20055;-39
2023/09/03 09:20:39;;;;;;;5.55;2.55;;;19.10;1.00;;;;;;5025525;28;20044;-39
2023/09/03 09:23:07;;;;;;;5.53;2.80;;;19.00;1.00;;;;;;5028695;28;20048;-41
2023/09/03 09:25:34;;;;;;;5.05;2.40;;;19.20;1.00;;;;;;5030148;28;20041;-38
2023/09/03 09:28:11;;;;;;;5.85;2.65;;;19.40;1.00;;;;;;5012154;28;20049;-41
2023/09/03 09:30:52;;;;;;;6.47;2.80;;;19.70;1.00;;;;;;5025253;28;20530;-39
2023/09/03 09:33:17;;;;;;;7.03;2.30;;;19.20;1.00;;;;;;5029215;28;20125;-39
2023/09/03 09:35:43;;;;;;;8.70;3.15;;;19.30;1.00;;;;;;5028493;28;20069;-38
2023/09/03 09:38:10;;;;;;;5.35;2.22;;;19.10;1.00;;;;;;5029375;28;20092;-41
2023/09/03 09:40:36;;;;;;;6.13;2.58;;;19.60;1.00;;;;;;5028789;28;20041;-39
2023/09/03 09:43:06;;;;;;;4.70;2.30;;;18.80;1.00;;;;;;5028703;28;20407;-36
2023/09/03 09:45:32;;;;;;;6.13;2.38;;;20.10;1.00;;;;;;5025341;28;20083;-39
2023/09/03 09:48:09;;;;;;;7.53;2.28;;;19.20;1.00;;;;;;5027391;28;20495;-38
2023/09/03 09:50:39;;;;;;;5.90;2.40;;;19.30;1.00;;;;;;5026045;28;20041;-38
2023/09/03 09:53:19;;;;;;;5.55;2.80;;;19.40;1.00;;;;;;5025108;28;20046;-37
2023/09/03 09:55:46;;;;;;;6.05;2.40;;;19.20;1.00;;;;;;5025106;28;20124;-39
2023/09/03 09:58:12;;;;;;;5.50;2.22;;;19.30;1.00;;;;;;5021109;28;20033;-40
2023/09/03 10:00:41;;;;;;;6.78;2.10;;;19.60;1.00;;;;;;5028657;28;20113;-41
2023/09/03 10:03:10;;;;;;;5.57;2.10;;;19.20;99.90;;;;;;5028103;28;20053;-38
2023/09/03 10:05:48;;;;;;;4.47;1.98;;;19.30;99.90;;;;;;5028705;28;20037;-41
2023/09/03 10:08:15;;;;;;;4.72;2.15;;;19.60;99.90;;;;;;5028935;28;20038;-39
2023/09/03 10:10:41;;;;;;;5.28;2.55;;;19.50;99.90;;;;;;5028913;28;20045;-38
2023/09/03 10:13:08;;;;;;;6.13;1.90;;;19.00;99.90;;;;;;5028625;28;20039;-38
2023/09/03 10:15:35;;;;;;;5.15;1.80;;;19.80;99.90;;;;;;5026910;28;20077;-39
2023/09/03 10:18:03;;;;;;;4.15;1.73;;;20.10;99.90;;;;;;5028679;28;20041;-39
2023/09/03 10:20:29;;;;;;;4.95;1.80;;;19.50;99.90;;;;;;5027233;28;20094;-39
2023/09/03 10:23:01;;;;;;;5.20;2.08;;;19.20;99.90;;;;;;5025903;28;20045;-41
2023/09/03 10:25:29;;;;;;;4.57;2.30;;;19.30;99.90;;;;;;5028686;28;20411;-40
2023/09/03 10:28:03;;;;;;;4.60;1.95;;;19.10;99.90;;;;;;5025112;28;20057;-40
2023/09/03 10:30:39;;;;;;;5.65;1.80;;;19.20;99.90;;;;;;5027722;28;20045;-36
2023/09/03 10:33:07;;;;;;;5.13;1.90;;;19.40;99.90;;;;;;4959541;28;20048;-42
2023/09/03 10:35:33;;;;;;;4.93;2.00;;;19.60;99.90;;;;;;4993471;28;20072;-39
2023/09/03 10:37:59;;;;;;;4.28;1.70;;;19.30;99.90;;;;;;5022596;28;20512;-37
2023/09/03 10:40:27;;;;;;;6.15;1.92;;;19.60;99.90;;;;;;5022457;28;20052;-41
2023/09/03 10:43:18;;;;;;;5.38;2.03;;;19.50;99.90;;;;;;5021180;28;20411;-37
2023/09/03 10:46:04;;;;;;;4.57;1.77;;;19.30;99.90;;;;;;5014602;28;20042;-40
2023/09/03 10:48:30;;;;;;;4.32;1.80;;;19.70;99.90;;;;;;5019840;28;20107;-39
2023/09/03 10:50:56;;;;;;;6.55;2.10;;;19.40;99.90;;;;;;5019925;28;20049;-39
2023/09/03 10:53:42;;;;;;;5.28;1.83;;;19.50;99.90;;;;;;5021534;28;20037;-40
2023/09/03 10:56:14;;;;;;;5.35;1.50;;;20.30;99.90;;;;;;5021065;28;20034;-42
2023/09/03 10:58:56;;;;;;;5.75;2.35;;;19.20;99.90;;;;;;5020122;28;20041;-40
2023/09/03 11:01:31;;;;;;;6.82;1.90;;;18.00;99.90;;;;;;5020443;28;20049;-39
2023/09/03 11:03:58;;;;;;;5.25;2.00;;;19.40;99.90;;;;;;5020617;28;20048;-39
2023/09/03 11:06:26;;;;;;;6.65;1.90;;;19.60;99.90;;;;;;5022699;28;20041;-41
2023/09/03 11:09:04;;;;;;;5.65;2.13;;;20.70;99.90;;;;;;5021145;28;20069;-41
2023/09/03 11:11:33;;;;;;;6.53;1.70;;;19.80;99.90;;;;;;5021968;28;20072;-40
2023/09/03 11:14:00;;;;;;;5.47;1.70;;;19.40;99.90;;;;;;5019269;28;20079;-40
2023/09/03 11:16:30;;;;;;;4.88;1.83;;;19.40;99.90;;;;;;5021467;28;20041;-39
2023/09/03 11:18:56;;;;;;;5.38;1.75;;;20.30;99.90;;;;;;5022558;28;20041;-39
2023/09/03 11:21:26;;;;;;;5.65;2.15;;;19.60;99.90;;;;;;5021548;28;20397;-40
2023/09/03 11:24:16;;;;;;;5.50;1.67;;;19.40;99.90;;;;;;5017997;28;20030;-38
2023/09/03 11:26:42;;;;;;;4.30;1.70;;;19.50;99.90;;;;;;5018540;28;20084;-40
2023/09/03 11:29:25;;;;;;;4.38;1.63;;;18.50;99.90;;;;;;5022012;28;20067;-42
2023/09/03 11:31:51;;;;;;;6.22;2.08;;;20.30;99.90;;;;;;5019452;28;20038;-39
2023/09/03 11:34:22;;;;;;;6.03;2.22;;;20.00;99.90;;;;;;5017072;28;20041;-41
2023/09/03 11:36:48;;;;;;;5.13;2.03;;;19.60;99.90;;;;;;5022524;28;20041;-39
2023/09/03 11:39:15;;;;;;;4.82;1.83;;;20.90;99.90;;;;;;5018372;28;20140;-39
2023/09/03 11:41:45;;;;;;;6.20;2.33;;;19.80;99.90;;;;;;5030362;28;20240;-40
2023/09/03 11:44:20;;;;;;;5.53;2.20;;;19.70;99.90;;;;;;5030948;28;20029;-39
2023/09/03 11:47:03;;;;;;;5.28;2.10;;;19.70;99.90;;;;;;5028362;28;20045;-41
2023/09/03 11:49:28;;;;;;;5.20;1.80;;;20.50;99.90;;;;;;5027476;28;20045;-40
2023/09/03 11:52:14;;;;;;;6.35;2.35;;;19.70;99.90;;;;;;5030376;28;20045;-40
2023/09/03 11:54:41;;;;;;;5.53;1.65;;;19.70;99.90;;;;;;5023230;28;20057;-40
2023/09/03 11:57:14;;;;;;;4.55;1.65;;;19.70;99.90;;;;;;5029705;28;20577;-39
2023/09/03 11:59:41;;;;;;;4.70;1.63;;;19.50;99.90;;;;;;5031467;28;20096;-39
2023/09/03 12:02:08;;;;;;;4.65;2.00;;;19.60;99.90;;;;;;5029451;28;20112;-39
2023/09/03 12:04:33;;;;;;;4.90;1.80;;;19.80;99.90;;;;;;5029860;28;20132;-39
2023/09/03 12:07:00;;;;;;;5.03;1.67;;;19.40;99.90;;;;;;5023143;28;20044;-41
2023/09/03 12:09:28;;;;;;;4.57;2.05;;;19.70;99.90;;;;;;5020690;28;20072;-39
2023/09/03 12:11:54;;;;;;;4.85;2.00;;;19.40;99.90;;;;;;5028390;28;20045;-39
2023/09/03 12:14:29;;;;;;;4.50;1.85;;;19.80;99.90;;;;;;5021817;28;20419;-40
2023/09/03 12:16:55;;;;;;;3.63;1.58;;;19.50;99.90;;;;;;5023711;28;20041;-40
2023/09/03 12:19:20;;;;;;;3.90;1.67;;;20.70;99.90;;;;;;5022133;28;20061;-41
2023/09/03 12:21:54;;;;;;;4.30;1.70;;;19.60;99.90;;;;;;5025105;28;20038;-41
2023/09/03 12:24:29;;;;;;;3.90;1.50;;;20.00;99.90;;;;;;5025448;28;20052;-39
2023/09/03 12:27:04;;;;;;;4.25;1.70;;;19.60;99.90;;;;;;5028453;28;20033;-37
2023/09/03 12:29:39;;;;;;;4.28;1.58;;;19.50;99.90;;;;;;5023262;28;20124;-39
2023/09/03 12:32:15;;;;;;;4.35;1.48;;;19.70;99.90;;;;;;5029157;28;20052;-39
2023/09/03 12:34:49;;;;;;;6.35;2.15;;;19.50;99.90;;;;;;5030128;28;20038;-40
2023/09/03 12:37:14;;;;;;;3.50;1.33;;;19.80;99.90;;;;;;5029071;28;20045;-41
2023/09/03 12:39:43;;;;;;;3.75;1.52;;;19.90;99.90;;;;;;5029705;28;20129;-38
2023/09/03 12:42:10;;;;;;;4.75;1.50;;;19.50;99.90;;;;;;5028706;28;20399;-40
2023/09/03 12:44:36;;;;;;;3.72;1.45;;;19.60;99.90;;;;;;5026582;28;20091;-39
2023/09/03 12:47:03;;;;;;;7.30;1.80;;;20.80;99.90;;;;;;5030273;28;20033;-41
2023/09/03 12:49:29;;;;;;;4.63;1.40;;;19.60;99.90;;;;;;5022367;28;20033;-40